This is the latest recevied weather packets stored in our database for station/object AB8Y-13. If no packets are shown the sender has not sent any weather packets the latest 1 day(s).
| Time | Temp. | Humidity | Pressure | Rain* | Wind** | Luminosity | Snow |
|---|---|---|---|---|---|---|---|
| 1778037930 | 6.11° C | 73% | 1009 hPa | 0 mm | - | 0 W/m² | - |
| 1778037627 | 6.11° C | 72% | 1009 hPa | 0 mm | - | 0 W/m² | - |
| 1778037021 | 6.11° C | 74% | 1009.1 hPa | 0 mm | - | 0 W/m² | - |
| 1778036416 | 6.11° C | 68% | 1008.8 hPa | 0 mm | - | 0 W/m² | - |
| 1778034899 | 6.67° C | 69% | 1009.2 hPa | 0 mm | - | 0 W/m² | - |
| 1778033991 | 6.67° C | 63% | 1008.7 hPa | 0 mm | - | 0 W/m² | - |
| 1778033688 | 6.67° C | 64% | 1008.8 hPa | 0 mm | - | 0 W/m² | - |
| 1778033385 | 6.67° C | 63% | 1008.8 hPa | 0 mm | - | 0 W/m² | - |
| 1778033083 | 7.22° C | 63% | 1008.6 hPa | 0 mm | - | 0 W/m² | - |
| 1778032780 | 7.22° C | 62% | 1008.6 hPa | 0 mm | - | 0 W/m² | - |
| 1778032477 | 7.78° C | 63% | 1008.6 hPa | 0 mm | - | 0 W/m² | - |
| 1778032174 | 8.33° C | 59% | 1008.6 hPa | 0 mm | - | 0 W/m² | - |
| 1778031871 | 8.89° C | 58% | 1008.4 hPa | 0 mm | - | 0 W/m² | - |
| 1778031266 | 8.89° C | 56% | 1008.4 hPa | 0 mm | - | 0 W/m² | - |
| 1778030962 | 8.89° C | 57% | 1008.2 hPa | 0 mm | - | 0 W/m² | - |
| 1778030658 | 9.44° C | 54% | 1008.3 hPa | 0 mm | - | 0 W/m² | - |
| 1778030355 | 9.44° C | 52% | 1008.1 hPa | 0 mm | - | 0 W/m² | - |
| 1778029749 | 10° C | 50% | 1008 hPa | 0 mm | - | 0 W/m² | - |
| 1778029448 | 10° C | 54% | 1008 hPa | 0 mm | - | 0 W/m² | - |
| 1778028537 | 10.56° C | 49% | 1008 hPa | 0 mm | - | 1 W/m² | - |
| 1778028235 | 10.56° C | 44% | 1007.9 hPa | 0 mm | - | 1 W/m² | - |
| 1778027931 | 10.56° C | 48% | 1008 hPa | 0 mm | - | 2 W/m² | - |
| 1778027324 | 10.56° C | 46% | 1008 hPa | 0 mm | - | 4 W/m² | - |
| 1778027020 | 11.11° C | 47% | 1008.1 hPa | 0 mm | - | 6 W/m² | - |
| 1778026716 | 11.11° C | 48% | 1008.2 hPa | 0 mm | - | 8 W/m² | - |
* Rain latest hour (hover to see other rain measurements)
** Current wind speed in m/s (hover to see current wind gust speed)